MAPA DE AEROPUERTO

INFORMACIÓN METAR y TAF


Deprecated: The each() function is deprecated. This message will be suppressed on further calls in /home/customer/www/clickair-va.com/public_html/VAM/vam/helpers/get_metar.php on line 20
METAR FOR LIRF
ADDS - METARS form results

(0311 UTC 28 January 2023)
Data provider http://aviationweather.gov/metar/data/
 
METAR text: LIRF 280250Z 04009KT 8000 -SHRA FEW025 BKN040 05/04 Q1010 TEMPO SHRA
Conditions at: LIRF (ROME/FIUMICINO , IT) observed 0250 UTC 28 January 2023
Temperature: 5.0°C (41°F)
Dewpoint: 4.0°C (39°F) [RH = 93%]
Pressure (altimeter): 29.82 inches Hg (1010.0 mb)
Winds: from the NE (40 degrees) at 10 MPH (9 knots; 4.6 m/s)
Visibility: 5 miles ( 8 km)
Ceiling: 4000 feet AGL
Clouds: few clouds at 2500 feet AGL
broken clouds at 4000 feet AGL
Weather: -SHRA  (light rain showers)

METAR text: LIRF 280220Z 05010KT 9999 -SHRA BKN035 05/04 Q1010 NOSIG
Conditions at: LIRF (ROME/FIUMICINO , IT) observed 0220 UTC 28 January 2023
Temperature: 5.0°C (41°F)
Dewpoint: 4.0°C (39°F) [RH = 93%]
Pressure (altimeter): 29.82 inches Hg (1010.0 mb)
Winds: from the NE (50 degrees) at 12 MPH (10 knots; 5.1 m/s)
Visibility: 6 or more miles (10+ km)
Ceiling: 3500 feet AGL
Clouds: broken clouds at 3500 feet AGL
Weather: -SHRA  (light rain showers)

Forecast for: LIRF (ROME/FIUMICINO , IT)
Text: TAF LIRF 272300Z 2800/2906 06012KT 9999 SCT040
Forecast period: 0000 UTC 28 January 2023 to 0600 UTC 29 January 2023
Forecast type: FROM: standard forecast or significant change
Winds: from the ENE (60 degrees) at 14 MPH (12 knots; 6.2 m/s)
Visibility: 6 or more miles (10+ km)
Ceiling: at least 12,000 feet AGL
Clouds: scattered clouds at 4000 feet AGL
Weather: no significant weather forecast for this period
Text: TEMPO 2800/2809 RA
Forecast period: 0000 to 0900 UTC 28 January 2023
Forecast type: TEMPORARY: The following changes expected for less than half the time period
Visibility: missing
Ceiling: unknown
Clouds: missing
Weather: RA  (moderate rain)